Leni P. — A8XW5 — position and weather

sailwx.info

Track history (hours):
 
Tides and Currents Weather Stations Pressure Air Temp Water Temp Dewpoint Dewpoint Depression Visibility Wind Speed Wind Dir Waves Ship Positions

Leni P.

Last reported at 2016-Mar-08 11:33 UTC. Time now 2016-Apr-29 04:01 UTC.
Position N 13°28' W 018°30'.
Warning: this ship's position is 51 days out of date.

Length 274 m; draft 9 m.

Type: Tanker. MMSI: 636014986.

Date/timePositionNaut miles runAvg speedWind from/ knotsBaromVisibWave heightAir tempDewpointWater temp
2016-Mar-08 11:33N 13°28' W 018°30'1413.6
2016-Mar-08 10:33N 13°41' W 018°30'1613.6
2016-Mar-08 09:23N 13°57' W 018°30'1113.5
2016-Mar-08 08:32N 14°09' W 018°30'2914.2
2016-Mar-08 06:28N 14°38' W 018°30'2014.6
2016-Mar-08 05:05N 14°58' W 018°30'2714.4
2016-Mar-08 03:11N 15°26' W 018°30'914.2
2016-Mar-08 02:32N 15°35' W 018°30'1814.1
2016-Mar-08 01:15N 15°53' W 018°30'1014.1
2016-Mar-08 00:30N 16°03' W 018°30'  
2016-Mar-05 19:24N 27°34' W 015°17'1214.1
2016-Mar-05 18:33N 27°45' W 015°12'1211.6
2016-Mar-05 17:33N 27°57' W 015°14'1313.1
2016-Mar-05 16:33N 28°07' W 015°23'1 1.1
2016-Mar-05 15:28N 28°08' W 015°24'0 0.0
2016-Mar-05 14:28N 28°08' W 015°24'0 0.0
2016-Mar-05 13:28N 28°08' W 015°24'0 0.0
2016-Mar-05 12:31N 28°08' W 015°24'0 0.0
2016-Mar-05 11:28N 28°08' W 015°24'0 0.0
2016-Mar-05 10:31N 28°08' W 015°24'0 0.0
2016-Mar-05 09:31N 28°08' W 015°24'0 0.1
2016-Mar-05 08:31N 28°08' W 015°24'1 1.2
2016-Mar-05 07:33N 28°08' W 015°23'6 5.7
2016-Mar-05 06:33N 28°08' W 015°16'1110.6
2016-Mar-05 05:33N 28°10' W 015°04'1212.3
2016-Mar-05 04:33N 28°20' W 014°55'1413.7
2016-Mar-05 03:33N 28°32' W 014°48'1313.4
2016-Mar-05 02:33N 28°43' W 014°40'1413.3
2016-Mar-05 01:30N 28°56' W 014°33'7213.4
2016-Mar-04 20:05N 29°59' W 013°53'1013.2
2016-Mar-04 19:19N 30°08' W 013°47'1113.3
2016-Mar-04 18:32N 30°18' W 013°42'29313.9
2016-Mar-03 21:25N 34°43' W 011°13'4314.0
2016-Mar-03 18:19N 35°22' W 010°52'4214.7
2016-Mar-03 15:27N 36°01' W 010°31'49 3.8
2016-Mar-03 02:31N 36°44' W 010°03'2 1.8
2016-Mar-03 01:27N 36°46' W 010°02'2 1.9
2016-Mar-03 00:30N 36°47' W 010°01'15 2.1
2016-Mar-02 17:33N 36°60' W 009°51'2 2.2
2016-Mar-02 16:32N 37°02' W 009°50'8 2.1
2016-Mar-02 12:32N 37°09' W 009°45'2 2.0
2016-Mar-02 11:22N 37°11' W 009°44'2 2.0
2016-Mar-02 10:31N 37°13' W 009°43'2 2.1
2016-Mar-02 09:32N 37°14' W 009°41'2 2.1
2016-Mar-02 08:32N 37°16' W 009°40'2 2.0
2016-Mar-02 07:32N 37°18' W 009°38'2 2.1
2016-Mar-02 06:33N 37°20' W 009°37'2 2.4
2016-Mar-02 05:33N 37°22' W 009°36'2 2.1
2016-Mar-02 04:30N 37°24' W 009°35'2 2.1
2016-Mar-02 03:33N 37°26' W 009°34'2 2.1
2016-Mar-02 02:33N 37°28' W 009°33'2 2.3
2016-Mar-02 01:33N 37°30' W 009°31'2 2.4
2016-Mar-02 00:33N 37°32' W 009°30'2 2.4
2016-Mar-01 23:33N 37°34' W 009°29'2 2.4
2016-Mar-01 22:33N 37°37' W 009°29'2 2.0
2016-Mar-01 21:33N 37°38' W 009°28'2 1.9
2016-Mar-01 20:33N 37°40' W 009°27'2 1.9
2016-Mar-01 19:33N 37°42' W 009°27'2 1.8
2016-Mar-01 18:33N 37°44' W 009°26'2 1.7
2016-Mar-01 17:33N 37°46' W 009°26'2 1.8
2016-Mar-01 16:33N 37°47' W 009°25'2 2.0
2016-Mar-01 15:33N 37°49' W 009°25'2 1.8
2016-Mar-01 14:33N 37°50' W 009°22'1212.0
2016-Mar-01 13:33N 37°52' W 009°07'1211.7
2016-Mar-01 12:33N 37°56' W 008°53'1 1.2
2016-Mar-01 11:32N 37°57' W 008°53'0 0.0
2016-Mar-01 10:32N 37°57' W 008°53'0 0.0
2016-Mar-01 09:32N 37°57' W 008°53'0 0.0
2016-Mar-01 08:32N 37°57' W 008°53'0 0.0
2016-Mar-01 07:32N 37°57' W 008°53'0 0.0
2016-Mar-01 06:32N 37°57' W 008°53'0 0.0
2016-Mar-01 05:32N 37°57' W 008°53'0 0.0
2016-Mar-01 04:32N 37°57' W 008°53'0 0.0
2016-Mar-01 03:32N 37°57' W 008°53'0 0.0
2016-Mar-01 02:32N 37°57' W 008°53'0 0.0
2016-Mar-01 01:32N 37°57' W 008°53'0 0.0
2016-Mar-01 00:32N 37°57' W 008°53'0 0.0
2016-Feb-29 23:32N 37°57' W 008°53'0 0.0
2016-Feb-29 22:32N 37°57' W 008°53'0 0.0
2016-Feb-29 21:32N 37°57' W 008°53'0 0.0
2016-Feb-29 20:32N 37°57' W 008°53'0 0.0
2016-Feb-29 19:32N 37°57' W 008°53'0 0.0
2016-Feb-29 18:32N 37°57' W 008°53'0 0.0
2016-Feb-29 17:32N 37°57' W 008°53'0 0.0
2016-Feb-29 16:32N 37°57' W 008°53'0 0.0
2016-Feb-29 15:32N 37°57' W 008°53'0 0.0
2016-Feb-29 14:32N 37°57' W 008°53'0 0.0
2016-Feb-29 13:32N 37°57' W 008°53'0 0.0
2016-Feb-29 12:32N 37°57' W 008°53'0 0.0
2016-Feb-29 11:32N 37°57' W 008°53'0 0.0
2016-Feb-29 10:32N 37°57' W 008°53'0 0.0
2016-Feb-29 09:32N 37°57' W 008°53'0 0.0
2016-Feb-29 08:32N 37°57' W 008°53'0 0.0
2016-Feb-29 07:32N 37°57' W 008°53'0 0.0
2016-Feb-29 06:32N 37°57' W 008°53'0 0.0
2016-Feb-29 05:32N 37°57' W 008°53'0 0.0
2016-Feb-29 04:32N 37°57' W 008°53'0 0.0
2016-Feb-29 03:32N 37°57' W 008°53'0 0.0
2016-Feb-29 02:32N 37°57' W 008°53'0 0.0
2016-Feb-29 01:32N 37°57' W 008°53'0 0.0
2016-Feb-29 00:32N 37°57' W 008°53'0 0.0
2016-Feb-28 23:32N 37°57' W 008°53'0 0.0
2016-Feb-28 22:32N 37°57' W 008°53'0 0.0
2016-Feb-28 21:32N 37°57' W 008°53'0 0.0
2016-Feb-28 20:32N 37°57' W 008°53'0 0.0
2016-Feb-28 19:32N 37°57' W 008°53'0 0.0
2016-Feb-28 18:32N 37°57' W 008°53'0 0.0
2016-Feb-28 17:32N 37°57' W 008°53'0 0.0
2016-Feb-28 16:32N 37°57' W 008°53'0 0.0
2016-Feb-28 15:32N 37°57' W 008°53'0 0.0
2016-Feb-28 14:32N 37°57' W 008°53'0 0.0
2016-Feb-28 13:32N 37°57' W 008°53'0 0.0
2016-Feb-28 12:32N 37°57' W 008°53'0 0.0
2016-Feb-28 11:32N 37°57' W 008°53'0 0.0
2016-Feb-28 10:32N 37°57' W 008°53'0 0.0
2016-Feb-28 09:32N 37°57' W 008°53'0 0.0
2016-Feb-28 08:33N 37°57' W 008°53'2 1.8
2016-Feb-28 07:33N 37°55' W 008°54'4 4.1
2016-Feb-28 06:33N 37°54' W 008°59'5 4.5
2016-Feb-28 05:32N 37°54' W 009°04'6 6.4
2016-Feb-28 04:33N 37°55' W 009°12'10 9.9
2016-Feb-28 03:33N 38°05' W 009°14'3 3.3
2016-Feb-28 02:33N 38°06' W 009°10'6 5.8
2016-Feb-28 01:33N 38°01' W 009°06'6 6.0
2016-Feb-28 00:33N 37°55' W 009°05'4 4.0
2016-Feb-27 23:33N 37°51' W 009°04'7 7.0
2016-Feb-27 22:33N 37°44' W 009°01'9 8.9
2016-Feb-27 21:33N 37°37' W 009°07'10 9.5
2016-Feb-27 20:33N 37°29' W 009°13'9 9.2
2016-Feb-27 19:32N 37°21' W 009°20'9 9.0
2016-Feb-27 18:33N 37°14' W 009°26'8 8.3
2016-Feb-27 17:32N 37°05' W 009°28'8 8.2
2016-Feb-27 16:33N 36°57' W 009°27'8 7.3
2016-Feb-27 15:30N 36°50' W 009°24'7 7.2
2016-Feb-27 14:30N 36°46' W 009°17'5 5.2
2016-Feb-27 13:30N 36°41' W 009°15'5 5.6
2016-Feb-27 12:33N 36°38' W 009°09'  
Track history (hours):
 
Tides and Currents Weather Stations Pressure Air Temp Water Temp Dewpoint Dewpoint Depression Visibility Wind Speed Wind Dir Waves Ship Positions

Leni P.

Last reported at 2016-Mar-08 11:33 UTC. Time now 2016-Apr-29 04:01 UTC.
Position N 13°28' W 018°30'.
Warning: this ship's position is 51 days out of date.

Length 274 m; draft 9 m.

Type: Tanker. MMSI: 636014986.

Date/timePositionNaut miles runAvg speedWind from/ knotsBaromVisibWave heightAir tempDewpointWater temp
2016-Mar-08 11:33N 13°28' W 018°30'1413.6
2016-Mar-08 10:33N 13°41' W 018°30'1613.6
2016-Mar-08 09:23N 13°57' W 018°30'1113.5
2016-Mar-08 08:32N 14°09' W 018°30'2914.2
2016-Mar-08 06:28N 14°38' W 018°30'2014.6
2016-Mar-08 05:05N 14°58' W 018°30'2714.4
2016-Mar-08 03:11N 15°26' W 018°30'914.2
2016-Mar-08 02:32N 15°35' W 018°30'1814.1
2016-Mar-08 01:15N 15°53' W 018°30'1014.1
2016-Mar-08 00:30N 16°03' W 018°30'  
2016-Mar-05 19:24N 27°34' W 015°17'1214.1
2016-Mar-05 18:33N 27°45' W 015°12'1211.6
2016-Mar-05 17:33N 27°57' W 015°14'1313.1
2016-Mar-05 16:33N 28°07' W 015°23'1 1.1
2016-Mar-05 15:28N 28°08' W 015°24'0 0.0
2016-Mar-05 14:28N 28°08' W 015°24'0 0.0
2016-Mar-05 13:28N 28°08' W 015°24'0 0.0
2016-Mar-05 12:31N 28°08' W 015°24'0 0.0
2016-Mar-05 11:28N 28°08' W 015°24'0 0.0
2016-Mar-05 10:31N 28°08' W 015°24'0 0.0
2016-Mar-05 09:31N 28°08' W 015°24'0 0.1
2016-Mar-05 08:31N 28°08' W 015°24'1 1.2
2016-Mar-05 07:33N 28°08' W 015°23'6 5.7
2016-Mar-05 06:33N 28°08' W 015°16'1110.6
2016-Mar-05 05:33N 28°10' W 015°04'1212.3
2016-Mar-05 04:33N 28°20' W 014°55'1413.7
2016-Mar-05 03:33N 28°32' W 014°48'1313.4
2016-Mar-05 02:33N 28°43' W 014°40'1413.3
2016-Mar-05 01:30N 28°56' W 014°33'7213.4
2016-Mar-04 20:05N 29°59' W 013°53'1013.2
2016-Mar-04 19:19N 30°08' W 013°47'1113.3
2016-Mar-04 18:32N 30°18' W 013°42'29313.9
2016-Mar-03 21:25N 34°43' W 011°13'4314.0
2016-Mar-03 18:19N 35°22' W 010°52'4214.7
2016-Mar-03 15:27N 36°01' W 010°31'49 3.8
2016-Mar-03 02:31N 36°44' W 010°03'2 1.8
2016-Mar-03 01:27N 36°46' W 010°02'2 1.9
2016-Mar-03 00:30N 36°47' W 010°01'15 2.1
2016-Mar-02 17:33N 36°60' W 009°51'2 2.2
2016-Mar-02 16:32N 37°02' W 009°50'8 2.1
2016-Mar-02 12:32N 37°09' W 009°45'2 2.0
2016-Mar-02 11:22N 37°11' W 009°44'2 2.0
2016-Mar-02 10:31N 37°13' W 009°43'2 2.1
2016-Mar-02 09:32N 37°14' W 009°41'2 2.1
2016-Mar-02 08:32N 37°16' W 009°40'2 2.0
2016-Mar-02 07:32N 37°18' W 009°38'2 2.1
2016-Mar-02 06:33N 37°20' W 009°37'2 2.4
2016-Mar-02 05:33N 37°22' W 009°36'2 2.1
2016-Mar-02 04:30N 37°24' W 009°35'2 2.1
2016-Mar-02 03:33N 37°26' W 009°34'2 2.1
2016-Mar-02 02:33N 37°28' W 009°33'2 2.3
2016-Mar-02 01:33N 37°30' W 009°31'2 2.4
2016-Mar-02 00:33N 37°32' W 009°30'2 2.4
2016-Mar-01 23:33N 37°34' W 009°29'2 2.4
2016-Mar-01 22:33N 37°37' W 009°29'2 2.0
2016-Mar-01 21:33N 37°38' W 009°28'2 1.9
2016-Mar-01 20:33N 37°40' W 009°27'2 1.9
2016-Mar-01 19:33N 37°42' W 009°27'2 1.8
2016-Mar-01 18:33N 37°44' W 009°26'2 1.7
2016-Mar-01 17:33N 37°46' W 009°26'2 1.8
2016-Mar-01 16:33N 37°47' W 009°25'2 2.0
2016-Mar-01 15:33N 37°49' W 009°25'2 1.8
2016-Mar-01 14:33N 37°50' W 009°22'1212.0
2016-Mar-01 13:33N 37°52' W 009°07'1211.7
2016-Mar-01 12:33N 37°56' W 008°53'1 1.2
2016-Mar-01 11:32N 37°57' W 008°53'0 0.0
2016-Mar-01 10:32N 37°57' W 008°53'0 0.0
2016-Mar-01 09:32N 37°57' W 008°53'0 0.0
2016-Mar-01 08:32N 37°57' W 008°53'0 0.0
2016-Mar-01 07:32N 37°57' W 008°53'0 0.0
2016-Mar-01 06:32N 37°57' W 008°53'0 0.0
2016-Mar-01 05:32N 37°57' W 008°53'0 0.0
2016-Mar-01 04:32N 37°57' W 008°53'0 0.0
2016-Mar-01 03:32N 37°57' W 008°53'0 0.0
2016-Mar-01 02:32N 37°57' W 008°53'0 0.0
2016-Mar-01 01:32N 37°57' W 008°53'0 0.0
2016-Mar-01 00:32N 37°57' W 008°53'0 0.0
2016-Feb-29 23:32N 37°57' W 008°53'0 0.0
2016-Feb-29 22:32N 37°57' W 008°53'0 0.0
2016-Feb-29 21:32N 37°57' W 008°53'0 0.0
2016-Feb-29 20:32N 37°57' W 008°53'0 0.0
2016-Feb-29 19:32N 37°57' W 008°53'0 0.0
2016-Feb-29 18:32N 37°57' W 008°53'0 0.0
2016-Feb-29 17:32N 37°57' W 008°53'0 0.0
2016-Feb-29 16:32N 37°57' W 008°53'0 0.0
2016-Feb-29 15:32N 37°57' W 008°53'0 0.0
2016-Feb-29 14:32N 37°57' W 008°53'0 0.0
2016-Feb-29 13:32N 37°57' W 008°53'0 0.0
2016-Feb-29 12:32N 37°57' W 008°53'0 0.0
2016-Feb-29 11:32N 37°57' W 008°53'0 0.0
2016-Feb-29 10:32N 37°57' W 008°53'0 0.0
2016-Feb-29 09:32N 37°57' W 008°53'0 0.0
2016-Feb-29 08:32N 37°57' W 008°53'0 0.0
2016-Feb-29 07:32N 37°57' W 008°53'0 0.0
2016-Feb-29 06:32N 37°57' W 008°53'0 0.0
2016-Feb-29 05:32N 37°57' W 008°53'0 0.0
2016-Feb-29 04:32N 37°57' W 008°53'0 0.0
2016-Feb-29 03:32N 37°57' W 008°53'0 0.0
2016-Feb-29 02:32N 37°57' W 008°53'0 0.0
2016-Feb-29 01:32N 37°57' W 008°53'0 0.0
2016-Feb-29 00:32N 37°57' W 008°53'0 0.0
2016-Feb-28 23:32N 37°57' W 008°53'0 0.0
2016-Feb-28 22:32N 37°57' W 008°53'0 0.0
2016-Feb-28 21:32N 37°57' W 008°53'0 0.0
2016-Feb-28 20:32N 37°57' W 008°53'0 0.0
2016-Feb-28 19:32N 37°57' W 008°53'0 0.0
2016-Feb-28 18:32N 37°57' W 008°53'0 0.0
2016-Feb-28 17:32N 37°57' W 008°53'0 0.0
2016-Feb-28 16:32N 37°57' W 008°53'0 0.0
2016-Feb-28 15:32N 37°57' W 008°53'0 0.0
2016-Feb-28 14:32N 37°57' W 008°53'0 0.0
2016-Feb-28 13:32N 37°57' W 008°53'0 0.0
2016-Feb-28 12:32N 37°57' W 008°53'0 0.0
2016-Feb-28 11:32N 37°57' W 008°53'0 0.0
2016-Feb-28 10:32N 37°57' W 008°53'0 0.0
2016-Feb-28 09:32N 37°57' W 008°53'0 0.0
2016-Feb-28 08:33N 37°57' W 008°53'2 1.8
2016-Feb-28 07:33N 37°55' W 008°54'4 4.1
2016-Feb-28 06:33N 37°54' W 008°59'5 4.5
2016-Feb-28 05:32N 37°54' W 009°04'6 6.4
2016-Feb-28 04:33N 37°55' W 009°12'10 9.9
2016-Feb-28 03:33N 38°05' W 009°14'3 3.3
2016-Feb-28 02:33N 38°06' W 009°10'6 5.8
2016-Feb-28 01:33N 38°01' W 009°06'6 6.0
2016-Feb-28 00:33N 37°55' W 009°05'4 4.0
2016-Feb-27 23:33N 37°51' W 009°04'7 7.0
2016-Feb-27 22:33N 37°44' W 009°01'9 8.9
2016-Feb-27 21:33N 37°37' W 009°07'10 9.5
2016-Feb-27 20:33N 37°29' W 009°13'9 9.2
2016-Feb-27 19:32N 37°21' W 009°20'9 9.0
2016-Feb-27 18:33N 37°14' W 009°26'8 8.3
2016-Feb-27 17:32N 37°05' W 009°28'8 8.2
2016-Feb-27 16:33N 36°57' W 009°27'8 7.3
2016-Feb-27 15:30N 36°50' W 009°24'7 7.2
2016-Feb-27 14:30N 36°46' W 009°17'5 5.2
2016-Feb-27 13:30N 36°41' W 009°15'5 5.6
2016-Feb-27 12:33N 36°38' W 009°09'  

Dump ship's entire track history